Time;durP1;ratioP1;P1;durP2;ratioP2;P2;SDS_P1;SDS_P2;PMS_P1;PMS_P2;Temp;Humidity;BMP_temperature;BMP_pressure;BME280_temperature;BME280_humidity;BME280_pressure;Samples;Min_cycle;Max_cycle;Signal;HPM_P1;HPM_P2
2024/03/24 00:02:21;;;;;;;2.30;0.98;;;;;;;;;;6221296;23;20020;-93
2024/03/24 00:04:47;;;;;;;1.05;1.05;;;;;;;;;;6221457;23;20031;-93
2024/03/24 00:07:13;;;;;;;3.72;1.00;;;;;;;;;;6221369;23;20016;-91
2024/03/24 00:09:40;;;;;;;2.95;0.98;;;;;;;;;;6221458;23;20028;-93
2024/03/24 00:12:06;;;;;;;0.75;0.70;;;;;;;;;;6221250;23;20020;-93
2024/03/24 00:14:32;;;;;;;0.63;0.63;;;;;;;;;;6221449;23;20017;-93
2024/03/24 00:16:59;;;;;;;1.55;1.00;;;;;;;;;;6220998;23;20111;-93
2024/03/24 00:19:25;;;;;;;1.15;1.05;;;;;;;;;;6220802;23;20349;-93
2024/03/24 00:21:51;;;;;;;0.98;0.90;;;;;;;;;;6221178;23;20024;-93
2024/03/24 00:24:18;;;;;;;0.98;0.85;;;;;;;;;;6221021;23;20024;-93
2024/03/24 00:26:44;;;;;;;2.85;1.08;;;;;;;;;;6220867;23;20016;-93
2024/03/24 00:29:10;;;;;;;1.27;1.10;;;;;;;;;;6223149;23;20024;-92
2024/03/24 00:31:36;;;;;;;2.72;1.00;;;;;;;;;;6221035;23;20023;-92
2024/03/24 00:34:03;;;;;;;1.92;1.80;;;;;;;;;;6221086;23;20024;-93
2024/03/24 00:36:29;;;;;;;2.28;1.20;;;;;;;;;;6221511;23;20031;-93
2024/03/24 00:38:55;;;;;;;1.90;1.10;;;;;;;;;;6221204;23;20028;-93
2024/03/24 00:41:21;;;;;;;1.38;1.02;;;;;;;;;;6220959;23;20449;-93
2024/03/24 00:43:48;;;;;;;2.60;1.10;;;;;;;;;;6220720;23;20028;-93
2024/03/24 00:46:14;;;;;;;0.80;0.80;;;;;;;;;;6220830;23;20016;-94
2024/03/24 00:48:40;;;;;;;1.17;1.02;;;;;;;;;;6220908;23;20073;-93
2024/03/24 00:51:07;;;;;;;2.45;0.95;;;;;;;;;;6221401;23;20024;-95
2024/03/24 00:53:33;;;;;;;1.30;1.20;;;;;;;;;;6222244;23;20020;-93
2024/03/24 00:55:59;;;;;;;2.78;1.10;;;;;;;;;;6221774;23;20016;-94
2024/03/24 00:58:26;;;;;;;1.33;0.68;;;;;;;;;;6221730;23;20079;-93
2024/03/24 01:00:52;;;;;;;7.82;1.05;;;;;;;;;;6221413;23;20039;-93
2024/03/24 01:03:18;;;;;;;1.42;0.93;;;;;;;;;;6196619;23;20078;-93
2024/03/24 01:05:47;;;;;;;3.20;1.02;;;;;;;;;;6231406;23;20026;-93
2024/03/24 01:08:13;;;;;;;0.80;0.80;;;;;;;;;;6242120;23;20091;-93
2024/03/24 01:10:40;;;;;;;1.83;0.80;;;;;;;;;;6221083;23;20049;-93
2024/03/24 01:13:06;;;;;;;2.25;1.10;;;;;;;;;;6220954;23;20023;-93
2024/03/24 01:15:33;;;;;;;3.63;1.20;;;;;;;;;;6220778;23;20024;-94
2024/03/24 01:17:59;;;;;;;1.40;0.75;;;;;;;;;;6221795;23;20024;-93
2024/03/24 01:20:25;;;;;;;4.50;1.30;;;;;;;;;;6221133;23;20024;-93
2024/03/24 01:22:52;;;;;;;1.73;1.15;;;;;;;;;;6221556;23;20020;-93
2024/03/24 01:25:18;;;;;;;2.20;0.98;;;;;;;;;;6221557;23;20021;-92
2024/03/24 01:27:44;;;;;;;0.95;0.80;;;;;;;;;;6221650;23;20017;-93
2024/03/24 01:30:11;;;;;;;2.72;1.08;;;;;;;;;;6220154;23;20078;-93
2024/03/24 01:32:38;;;;;;;1.95;1.25;;;;;;;;;;6220607;23;20016;-93
2024/03/24 01:35:04;;;;;;;1.55;0.88;;;;;;;;;;6222498;23;20452;-94
2024/03/24 01:37:30;;;;;;;2.08;0.90;;;;;;;;;;6222228;23;20016;-93
2024/03/24 01:39:57;;;;;;;1.60;1.02;;;;;;;;;;6222787;23;20034;-93
2024/03/24 01:42:23;;;;;;;0.82;0.82;;;;;;;;;;6222266;23;20016;-93
2024/03/24 01:44:49;;;;;;;1.83;1.17;;;;;;;;;;6222813;23;20024;-93
2024/03/24 01:47:16;;;;;;;1.60;1.10;;;;;;;;;;6222434;23;20016;-93
2024/03/24 01:49:42;;;;;;;1.10;1.00;;;;;;;;;;6222648;23;20027;-93
2024/03/24 01:52:09;;;;;;;2.47;1.10;;;;;;;;;;6222456;23;20024;-92
2024/03/24 01:54:35;;;;;;;2.67;1.15;;;;;;;;;;6222693;23;20384;-93
2024/03/24 01:57:03;;;;;;;1.88;1.20;;;;;;;;;;6222703;23;20050;-93
2024/03/24 01:59:29;;;;;;;2.05;1.00;;;;;;;;;;6222629;23;20353;-93
2024/03/24 02:01:56;;;;;;;1.15;1.05;;;;;;;;;;6222734;23;20020;-93
2024/03/24 02:04:22;;;;;;;1.25;0.90;;;;;;;;;;6222291;23;20020;-93
2024/03/24 02:06:48;;;;;;;1.63;1.10;;;;;;;;;;6222590;23;20024;-92
2024/03/24 02:09:14;;;;;;;3.10;1.00;;;;;;;;;;6222073;23;20027;-92
2024/03/24 02:11:41;;;;;;;3.42;1.33;;;;;;;;;;6222365;23;20016;-93
2024/03/24 02:14:07;;;;;;;3.10;1.45;;;;;;;;;;6222451;23;20020;-93
2024/03/24 02:16:34;;;;;;;2.05;1.48;;;;;;;;;;6223622;23;20028;-93
2024/03/24 02:19:00;;;;;;;0.90;0.90;;;;;;;;;;6222810;23;20026;-93
2024/03/24 02:21:26;;;;;;;0.75;0.70;;;;;;;;;;6232131;23;20049;-93
2024/03/24 02:23:53;;;;;;;2.22;0.70;;;;;;;;;;6240735;23;20348;-93
2024/03/24 02:26:19;;;;;;;1.85;0.93;;;;;;;;;;6222745;23;20028;-93
2024/03/24 02:28:45;;;;;;;2.28;1.05;;;;;;;;;;6222278;23;20070;-93
2024/03/24 02:31:12;;;;;;;2.10;1.08;;;;;;;;;;6222352;23;20020;-93
2024/03/24 02:33:38;;;;;;;1.65;1.10;;;;;;;;;;6224236;23;20023;-93
2024/03/24 02:36:05;;;;;;;2.65;1.92;;;;;;;;;;6222982;23;20016;-93
2024/03/24 02:38:31;;;;;;;2.65;1.60;;;;;;;;;;6222599;23;20020;-93
2024/03/24 02:40:57;;;;;;;2.03;1.55;;;;;;;;;;6222450;23;20016;-93
2024/03/24 02:43:24;;;;;;;4.38;2.28;;;;;;;;;;6223606;23;20027;-93
2024/03/24 02:45:56;;;;;;;2.13;1.75;;;;;;;;;;6222710;23;20020;-93
2024/03/24 02:48:23;;;;;;;4.43;2.00;;;;;;;;;;6222156;23;20078;-93
2024/03/24 02:50:49;;;;;;;5.88;2.25;;;;;;;;;;6222333;23;20024;-93
2024/03/24 02:53:16;;;;;;;2.78;2.13;;;;;;;;;;6222481;23;20020;-94
2024/03/24 02:55:46;;;;;;;1.83;1.73;;;;;;;;;;6222532;23;20027;-93
2024/03/24 02:58:13;;;;;;;1.90;1.80;;;;;;;;;;6222709;23;20020;-93
2024/03/24 03:00:39;;;;;;;3.63;2.33;;;;;;;;;;6221553;23;20027;-93
2024/03/24 03:03:05;;;;;;;2.60;2.00;;;;;;;;;;6222293;23;20020;-94
2024/03/24 03:05:31;;;;;;;3.22;1.85;;;;;;;;;;6222366;23;20074;-93
2024/03/24 03:07:58;;;;;;;6.93;1.92;;;;;;;;;;6222341;23;20023;-95
2024/03/24 03:10:24;;;;;;;2.78;1.40;;;;;;;;;;6223966;23;20318;-92
2024/03/24 03:12:50;;;;;;;5.20;1.83;;;;;;;;;;6221866;23;20021;-93
2024/03/24 03:15:17;;;;;;;8.70;1.75;;;;;;;;;;6222241;23;20017;-93
2024/03/24 03:17:43;;;;;;;3.53;1.88;;;;;;;;;;6223298;23;20452;-93
2024/03/24 03:20:12;;;;;;;4.95;2.60;;;;;;;;;;6221967;23;20016;-92
2024/03/24 03:22:40;;;;;;;2.53;1.55;;;;;;;;;;6222069;23;20047;-94
2024/03/24 03:25:07;;;;;;;2.70;1.48;;;;;;;;;;6221782;23;20020;-94
2024/03/24 03:27:34;;;;;;;4.47;1.60;;;;;;;;;;6223124;23;20020;-91
2024/03/24 03:30:01;;;;;;;3.65;1.38;;;;;;;;;;6221904;23;20020;-93
2024/03/24 03:32:27;;;;;;;4.80;1.92;;;;;;;;;;6223517;23;20016;-93
2024/03/24 03:34:54;;;;;;;2.40;1.45;;;;;;;;;;6222971;23;20070;-93
2024/03/24 03:37:21;;;;;;;2.70;1.73;;;;;;;;;;6239565;22;20026;-91
2024/03/24 03:39:47;;;;;;;2.22;1.65;;;;;;;;;;6234166;23;20020;-94
2024/03/24 03:42:14;;;;;;;3.85;2.25;;;;;;;;;;6222217;23;20016;-93
2024/03/24 03:44:41;;;;;;;5.25;2.08;;;;;;;;;;6221568;23;20024;-94
2024/03/24 03:47:07;;;;;;;5.78;2.17;;;;;;;;;;6221498;23;20020;-93
2024/03/24 03:49:33;;;;;;;3.28;1.90;;;;;;;;;;6221254;23;20030;-93
2024/03/24 03:52:00;;;;;;;3.00;2.20;;;;;;;;;;6222171;23;20020;-93
2024/03/24 03:54:26;;;;;;;2.95;2.28;;;;;;;;;;6221262;23;20016;-93
2024/03/24 03:56:54;;;;;;;3.08;2.63;;;;;;;;;;6220927;23;20020;-94
2024/03/24 03:59:21;;;;;;;4.43;2.60;;;;;;;;;;6197065;23;20026;-93
2024/03/24 04:01:47;;;;;;;4.18;2.30;;;;;;;;;;6221233;23;20074;-93
2024/03/24 04:04:13;;;;;;;3.05;2.05;;;;;;;;;;6221017;23;20024;-94
2024/03/24 04:06:40;;;;;;;5.63;2.80;;;;;;;;;;6221648;23;20020;-93
2024/03/24 04:09:08;;;;;;;2.75;2.38;;;;;;;;;;6221278;23;20020;-93
2024/03/24 04:11:35;;;;;;;3.22;2.50;;;;;;;;;;6221929;23;20020;-93
2024/03/24 04:14:01;;;;;;;3.58;2.22;;;;;;;;;;6222516;23;20020;-93
2024/03/24 04:16:27;;;;;;;2.30;1.90;;;;;;;;;;6223327;23;20518;-92
2024/03/24 04:18:54;;;;;;;2.13;1.50;;;;;;;;;;6222115;23;20020;-93
2024/03/24 04:21:20;;;;;;;2.67;2.03;;;;;;;;;;6223157;23;20024;-93
2024/03/24 04:23:46;;;;;;;1.77;1.67;;;;;;;;;;6222742;23;20028;-91
2024/03/24 04:26:13;;;;;;;2.22;2.08;;;;;;;;;;6228314;23;20020;-93
2024/03/24 04:28:40;;;;;;;1.95;1.90;;;;;;;;;;6226160;23;20016;-94
2024/03/24 04:31:06;;;;;;;3.05;2.40;;;;;;;;;;6223949;23;20376;-95
2024/03/24 04:33:32;;;;;;;2.20;2.10;;;;;;;;;;6225578;23;20020;-93
2024/03/24 04:35:58;;;;;;;3.10;2.88;;;;;;;;;;6227348;23;20073;-95
2024/03/24 04:38:25;;;;;;;3.20;3.00;;;;;;;;;;6225323;23;20020;-94
2024/03/24 04:40:51;;;;;;;3.03;2.70;;;;;;;;;;6252660;23;20027;-94
2024/03/24 04:43:19;;;;;;;3.50;2.97;;;;;;;;;;6226053;23;20441;-94
2024/03/24 04:45:45;;;;;;;2.95;2.75;;;;;;;;;;6226588;23;20031;-93
2024/03/24 04:48:15;;;;;;;2.90;2.80;;;;;;;;;;6225425;23;20016;-94
2024/03/24 04:50:41;;;;;;;2.90;2.70;;;;;;;;;;6230251;23;20023;-94
2024/03/24 04:53:07;;;;;;;3.08;2.53;;;;;;;;;;6242828;23;20014;-95
2024/03/24 04:55:33;;;;;;;2.42;2.33;;;;;;;;;;6226513;23;20464;-94
2024/03/24 04:58:00;;;;;;;2.78;2.58;;;;;;;;;;6222754;23;20020;-95
2024/03/24 05:00:26;;;;;;;2.92;2.67;;;;;;;;;;6222205;23;20515;-94
2024/03/24 05:02:52;;;;;;;2.33;2.17;;;;;;;;;;6221713;23;20016;-94
2024/03/24 05:05:19;;;;;;;2.45;2.35;;;;;;;;;;6221362;23;20024;-94
2024/03/24 05:07:48;;;;;;;2.70;2.42;;;;;;;;;;6220968;23;20065;-94
2024/03/24 05:10:14;;;;;;;1.98;1.88;;;;;;;;;;6224696;23;20020;-94
2024/03/24 05:12:41;;;;;;;2.30;2.10;;;;;;;;;;6224510;23;20020;-94
2024/03/24 05:15:09;;;;;;;2.00;1.90;;;;;;;;;;6225585;23;20020;-94
2024/03/24 05:17:39;;;;;;;1.77;1.67;;;;;;;;;;6226070;23;20467;-93
2024/03/24 05:20:09;;;;;;;3.08;1.70;;;;;;;;;;6224812;23;20024;-93
2024/03/24 05:22:39;;;;;;;1.55;1.45;;;;;;;;;;6235180;23;20020;-93
2024/03/24 05:25:05;;;;;;;1.77;1.30;;;;;;;;;;6233064;23;20026;-94
2024/03/24 05:27:31;;;;;;;2.15;1.00;;;;;;;;;;6229413;23;20022;-95
2024/03/24 05:30:01;;;;;;;3.15;1.67;;;;;;;;;;6230107;23;20210;-95
2024/03/24 05:32:27;;;;;;;2.22;1.15;;;;;;;;;;6230269;23;20016;-94
2024/03/24 05:34:53;;;;;;;3.38;1.40;;;;;;;;;;6228661;23;20020;-94
2024/03/24 05:37:20;;;;;;;1.38;1.27;;;;;;;;;;6230491;23;20028;-96
2024/03/24 05:39:49;;;;;;;2.78;1.25;;;;;;;;;;6225660;23;20046;-94
2024/03/24 05:42:16;;;;;;;2.58;1.30;;;;;;;;;;6225410;23;20020;-93
2024/03/24 05:44:42;;;;;;;2.20;1.40;;;;;;;;;;6224130;23;20020;-94
2024/03/24 05:47:08;;;;;;;2.63;1.35;;;;;;;;;;6224232;23;20392;-93
2024/03/24 05:49:35;;;;;;;1.50;1.40;;;;;;;;;;6224153;23;20024;-93
2024/03/24 05:52:01;;;;;;;2.88;1.50;;;;;;;;;;6228370;23;20016;-94
2024/03/24 05:54:27;;;;;;;1.73;1.63;;;;;;;;;;6224325;23;20020;-92
2024/03/24 05:56:54;;;;;;;3.42;2.70;;;;;;;;;;6226489;23;20016;-93
2024/03/24 05:59:20;;;;;;;2.78;2.20;;;;;;;;;;6225614;23;20460;-94
2024/03/24 06:01:47;;;;;;;1.75;1.52;;;;;;;;;;6226184;23;20016;-94
2024/03/24 06:04:13;;;;;;;1.60;1.50;;;;;;;;;;6201532;23;20024;-93
2024/03/24 06:06:40;;;;;;;1.35;1.20;;;;;;;;;;6238168;23;20087;-93
2024/03/24 06:09:06;;;;;;;1.40;1.30;;;;;;;;;;6246138;23;20103;-93
2024/03/24 06:11:33;;;;;;;2.95;1.80;;;;;;;;;;6224870;23;20345;-93
2024/03/24 06:13:59;;;;;;;2.60;1.85;;;;;;;;;;6226237;23;20027;-93
2024/03/24 06:16:26;;;;;;;3.40;1.70;;;;;;;;;;6225452;23;20024;-93
2024/03/24 06:18:52;;;;;;;1.95;1.70;;;;;;;;;;6253888;23;20024;-94
2024/03/24 06:21:20;;;;;;;2.28;1.58;;;;;;;;;;6225251;23;20020;-94
2024/03/24 06:23:46;;;;;;;6.07;1.60;;;;;;;;;;6223727;23;20024;-95
2024/03/24 06:26:13;;;;;;;1.45;1.35;;;;;;;;;;6223988;23;20016;-95
2024/03/24 06:28:39;;;;;;;1.92;1.63;;;;;;;;;;6223418;23;20043;-93
2024/03/24 06:31:05;;;;;;;2.55;1.40;;;;;;;;;;6222694;23;20016;-95
2024/03/24 06:33:32;;;;;;;3.63;1.70;;;;;;;;;;6225334;23;20020;-93
2024/03/24 06:35:58;;;;;;;1.70;1.60;;;;;;;;;;6224794;23;20074;-94
2024/03/24 06:38:26;;;;;;;1.63;1.52;;;;;;;;;;6224280;23;20020;-94
2024/03/24 06:40:52;;;;;;;2.17;1.30;;;;;;;;;;6223455;23;20016;-94
2024/03/24 06:43:23;;;;;;;2.33;1.30;;;;;;;;;;6223294;23;20469;-95
2024/03/24 06:45:49;;;;;;;1.80;1.70;;;;;;;;;;6223750;23;20028;-93
2024/03/24 06:48:17;;;;;;;2.25;1.65;;;;;;;;;;6228914;23;20016;-93
2024/03/24 06:50:43;;;;;;;1.75;1.50;;;;;;;;;;6226010;23;20020;-95
2024/03/24 06:53:11;;;;;;;1.85;1.17;;;;;;;;;;6224728;23;20024;-95
2024/03/24 06:55:37;;;;;;;2.92;1.73;;;;;;;;;;6224630;23;20016;-94
2024/03/24 06:58:03;;;;;;;2.15;1.65;;;;;;;;;;6223702;23;20020;-92
2024/03/24 07:00:29;;;;;;;1.88;1.50;;;;;;;;;;6222108;23;20016;-92
2024/03/24 07:02:56;;;;;;;3.50;1.48;;;;;;;;;;6221723;23;20024;-93
2024/03/24 07:05:22;;;;;;;1.63;1.52;;;;;;;;;;6222728;23;20020;-92
2024/03/24 07:07:49;;;;;;;1.77;1.40;;;;;;;;;;6222565;23;20016;-92
2024/03/24 07:10:15;;;;;;;1.85;1.33;;;;;;;;;;6222557;23;20024;-93
2024/03/24 07:12:41;;;;;;;1.33;1.30;;;;;;;;;;6221855;23;20020;-93
2024/03/24 07:15:08;;;;;;;2.00;1.23;;;;;;;;;;6222443;23;20020;-92
2024/03/24 07:17:34;;;;;;;1.33;1.23;;;;;;;;;;6222443;23;20016;-93
2024/03/24 07:20:01;;;;;;;1.95;1.25;;;;;;;;;;6224749;23;20020;-93
2024/03/24 07:22:27;;;;;;;1.83;1.40;;;;;;;;;;6240495;23;20453;-90
2024/03/24 07:24:53;;;;;;;3.30;1.30;;;;;;;;;;6231639;23;20024;-94
2024/03/24 07:27:19;;;;;;;1.27;1.13;;;;;;;;;;6223435;23;20016;-92
2024/03/24 07:29:46;;;;;;;1.00;0.80;;;;;;;;;;6221909;23;20020;-92
2024/03/24 07:32:12;;;;;;;1.70;1.45;;;;;;;;;;6222443;23;20027;-90
2024/03/24 07:34:40;;;;;;;1.23;0.93;;;;;;;;;;6222553;23;20020;-92
2024/03/24 07:37:06;;;;;;;1.27;0.82;;;;;;;;;;6249596;23;20024;-92
2024/03/24 07:39:32;;;;;;;1.33;0.85;;;;;;;;;;6222947;23;20027;-94
2024/03/24 07:41:59;;;;;;;1.40;0.88;;;;;;;;;;6247211;23;20028;-91
2024/03/24 07:44:25;;;;;;;2.45;1.00;;;;;;;;;;6222266;23;20020;-91
2024/03/24 07:46:51;;;;;;;2.30;1.08;;;;;;;;;;6249995;23;20020;-94
2024/03/24 07:49:17;;;;;;;1.65;0.88;;;;;;;;;;6224476;23;20340;-92
2024/03/24 07:51:44;;;;;;;1.13;0.90;;;;;;;;;;6248794;23;20027;-93
2024/03/24 07:54:10;;;;;;;1.17;0.75;;;;;;;;;;6249817;23;20020;-90
2024/03/24 07:56:36;;;;;;;0.70;0.70;;;;;;;;;;6248446;23;20026;-91
2024/03/24 07:59:02;;;;;;;1.67;0.98;;;;;;;;;;6247748;23;20020;-91
2024/03/24 08:01:29;;;;;;;1.95;0.90;;;;;;;;;;6223128;23;20453;-92
2024/03/24 08:03:55;;;;;;;1.48;1.10;;;;;;;;;;6247596;23;20020;-90
2024/03/24 08:06:21;;;;;;;0.95;0.95;;;;;;;;;;6248938;23;20396;-93
2024/03/24 08:08:48;;;;;;;2.30;0.70;;;;;;;;;;6221189;23;20026;-92
2024/03/24 08:11:14;;;;;;;0.63;0.63;;;;;;;;;;6247672;23;20336;-91
2024/03/24 08:13:40;;;;;;;0.95;0.80;;;;;;;;;;6221394;23;20479;-95
2024/03/24 08:16:06;;;;;;;1.42;0.80;;;;;;;;;;6246375;23;20026;-94
2024/03/24 08:18:36;;;;;;;0.95;0.77;;;;;;;;;;6222196;23;20082;-91
2024/03/24 08:21:03;;;;;;;1.15;1.00;;;;;;;;;;6223633;23;20016;-91
2024/03/24 08:23:29;;;;;;;2.15;0.98;;;;;;;;;;6223410;23;20024;-91
2024/03/24 08:25:55;;;;;;;0.88;0.88;;;;;;;;;;6221498;23;20016;-93
2024/03/24 08:28:22;;;;;;;1.30;1.10;;;;;;;;;;6248691;23;20027;-89
2024/03/24 08:30:48;;;;;;;1.40;0.90;;;;;;;;;;6223557;23;20070;-93
2024/03/24 08:33:14;;;;;;;1.10;1.00;;;;;;;;;;6221306;23;20023;-92
2024/03/24 08:35:41;;;;;;;1.00;0.80;;;;;;;;;;6227834;22;20046;-89
2024/03/24 08:38:07;;;;;;;1.15;0.88;;;;;;;;;;6235783;23;20387;-90
2024/03/24 08:40:33;;;;;;;1.23;0.82;;;;;;;;;;6221886;23;20352;-92
2024/03/24 08:42:59;;;;;;;0.98;0.70;;;;;;;;;;6245681;23;20024;-92
2024/03/24 08:45:26;;;;;;;0.95;0.80;;;;;;;;;;6220821;23;20074;-92
2024/03/24 08:47:52;;;;;;;0.77;0.75;;;;;;;;;;6221209;23;20020;-91
2024/03/24 08:50:18;;;;;;;1.30;0.90;;;;;;;;;;6222007;23;20457;-94
2024/03/24 08:52:44;;;;;;;2.00;0.93;;;;;;;;;;6247738;23;20016;-92
2024/03/24 08:55:11;;;;;;;0.80;0.80;;;;;;;;;;6221486;23;20020;-94
2024/03/24 08:57:41;;;;;;;1.00;0.88;;;;;;;;;;6221370;23;20475;-92
2024/03/24 09:00:09;;;;;;;1.00;0.90;;;;;;;;;;6246801;23;20020;-93
2024/03/24 09:02:35;;;;;;;0.95;0.80;;;;;;;;;;6221946;23;20024;-92
2024/03/24 09:05:02;;;;;;;0.70;0.70;;;;;;;;;;6221568;23;20483;-92
2024/03/24 09:07:28;;;;;;;0.60;0.60;;;;;;;;;;6220761;23;20017;-93
2024/03/24 09:09:54;;;;;;;0.93;0.80;;;;;;;;;;6223043;23;20024;-92
2024/03/24 09:12:20;;;;;;;0.80;0.80;;;;;;;;;;6247830;23;20396;-94
2024/03/24 09:14:47;;;;;;;1.13;0.70;;;;;;;;;;6221169;23;20016;-93
2024/03/24 09:17:13;;;;;;;0.73;0.70;;;;;;;;;;6221442;23;20031;-92
2024/03/24 09:19:39;;;;;;;1.60;0.70;;;;;;;;;;6247178;23;20031;-94
2024/03/24 09:22:06;;;;;;;0.50;0.50;;;;;;;;;;6246645;23;20058;-92
2024/03/24 09:24:33;;;;;;;1.75;0.63;;;;;;;;;;6222197;23;20020;-92
2024/03/24 09:27:02;;;;;;;0.57;0.55;;;;;;;;;;6247561;23;20387;-92
2024/03/24 09:29:28;;;;;;;0.40;0.40;;;;;;;;;;6247640;23;20479;-92
2024/03/24 09:31:54;;;;;;;0.88;0.60;;;;;;;;;;6247780;23;20027;-94
2024/03/24 09:34:22;;;;;;;0.45;0.45;;;;;;;;;;6222301;23;20024;-93
2024/03/24 09:36:49;;;;;;;0.77;0.60;;;;;;;;;;6246331;23;20016;-92
2024/03/24 09:39:15;;;;;;;0.60;0.60;;;;;;;;;;6221546;23;20392;-92
2024/03/24 09:41:45;;;;;;;0.45;0.43;;;;;;;;;;6221247;23;20024;-93
2024/03/24 09:44:12;;;;;;;0.40;0.40;;;;;;;;;;6247898;23;20069;-93
2024/03/24 09:46:40;;;;;;;1.42;0.50;;;;;;;;;;6246404;23;20026;-93
2024/03/24 09:49:14;;;;;;;0.40;0.40;;;;;;;;;;6248220;23;20020;-93
2024/03/24 09:51:40;;;;;;;0.75;0.40;;;;;;;;;;6262945;22;20035;-92
2024/03/24 09:54:10;;;;;;;0.50;0.40;;;;;;;;;;6256026;23;20020;-94
2024/03/24 09:56:37;;;;;;;0.20;0.20;;;;;;;;;;6225448;23;20023;-91
2024/03/24 09:59:04;;;;;;;0.55;0.55;;;;;;;;;;6251411;23;20024;-92
2024/03/24 10:01:31;;;;;;;0.30;0.30;;;;;;;;;;6223879;23;20020;-92
2024/03/24 10:03:57;;;;;;;0.32;0.32;;;;;;;;;;6248943;23;20021;-94
2024/03/24 10:06:27;;;;;;;0.43;0.40;;;;;;;;;;6223157;23;20024;-91
2024/03/24 10:08:54;;;;;;;0.20;0.20;;;;;;;;;;6223527;23;20020;-93
2024/03/24 10:11:30;;;;;;;0.13;0.13;;;;;;;;;;6223358;23;20024;-93
2024/03/24 10:13:57;;;;;;;0.30;0.30;;;;;;;;;;6223218;23;20072;-91
2024/03/24 10:16:24;;;;;;;0.30;0.30;;;;;;;;;;6222145;23;20020;-93
2024/03/24 10:18:50;;;;;;;0.17;0.13;;;;;;;;;;6250454;23;20024;-95
2024/03/24 10:21:20;;;;;;;0.30;0.30;;;;;;;;;;6223081;23;20020;-93
2024/03/24 10:23:47;;;;;;;0.30;0.30;;;;;;;;;;6221334;23;20315;-92
2024/03/24 10:26:23;;;;;;;0.10;0.10;;;;;;;;;;6248102;23;20043;-93
2024/03/24 10:28:50;;;;;;;0.13;0.13;;;;;;;;;;6248213;23;20020;-93
2024/03/24 10:31:16;;;;;;;0.10;0.10;;;;;;;;;;6222740;23;20030;-92
2024/03/24 10:33:44;;;;;;;0.38;0.38;;;;;;;;;;6222528;23;20400;-95
2024/03/24 10:36:10;;;;;;;0.20;0.20;;;;;;;;;;6248151;23;20020;-93
2024/03/24 10:38:37;;;;;;;0.20;0.20;;;;;;;;;;6221739;23;20086;-92
2024/03/24 10:41:05;;;;;;;0.17;0.17;;;;;;;;;;6222181;23;20020;-92
2024/03/24 10:43:31;;;;;;;0.20;0.20;;;;;;;;;;6223063;23;20023;-94
2024/03/24 10:45:58;;;;;;;0.40;0.40;;;;;;;;;;6222779;23;20020;-92
2024/03/24 10:48:27;;;;;;;1.00;0.25;;;;;;;;;;6247980;23;20074;-92
2024/03/24 10:50:54;;;;;;;0.70;0.50;;;;;;;;;;6223038;23;20066;-93
2024/03/24 10:53:22;;;;;;;0.40;0.40;;;;;;;;;;6224166;23;20384;-93
2024/03/24 10:55:50;;;;;;;0.30;0.30;;;;;;;;;;6221861;23;20024;-93
2024/03/24 10:58:19;;;;;;;0.65;0.60;;;;;;;;;;6247879;23;20016;-92
2024/03/24 11:00:45;;;;;;;1.23;1.13;;;;;;;;;;6247264;23;20039;-93
2024/03/24 11:03:13;;;;;;;1.73;0.70;;;;;;;;;;6222069;23;20020;-93
2024/03/24 11:05:40;;;;;;;1.00;0.90;;;;;;;;;;6228873;23;20035;-93
2024/03/24 11:08:07;;;;;;;1.00;0.80;;;;;;;;;;6261154;23;20049;-94
2024/03/24 11:10:35;;;;;;;1.17;1.08;;;;;;;;;;6224582;23;20027;-93
2024/03/24 11:13:01;;;;;;;1.67;1.20;;;;;;;;;;6222740;23;20027;-93
2024/03/24 11:15:28;;;;;;;2.03;1.02;;;;;;;;;;6247180;23;20016;-93
2024/03/24 11:17:54;;;;;;;1.38;1.00;;;;;;;;;;6246995;23;20322;-94
2024/03/24 11:20:21;;;;;;;2.03;1.20;;;;;;;;;;6222340;23;20453;-93
2024/03/24 11:22:48;;;;;;;2.05;1.38;;;;;;;;;;6222996;23;20020;-93
2024/03/24 11:25:15;;;;;;;3.47;1.40;;;;;;;;;;6246982;23;20027;-94
2024/03/24 11:27:46;;;;;;;1.90;1.20;;;;;;;;;;6221969;23;20031;-92
2024/03/24 11:30:13;;;;;;;3.00;1.15;;;;;;;;;;6221787;23;20020;-91
2024/03/24 11:32:52;;;;;;;0.93;0.93;;;;;;;;;;6246833;23;20020;-91
2024/03/24 11:35:19;;;;;;;1.13;1.02;;;;;;;;;;6247871;23;20418;-93
2024/03/24 11:37:49;;;;;;;3.33;1.27;;;;;;;;;;6222708;23;20020;-93
2024/03/24 11:40:15;;;;;;;1.27;0.90;;;;;;;;;;6247731;23;20017;-94
2024/03/24 11:42:41;;;;;;;2.30;1.20;;;;;;;;;;6222779;23;20020;-90
2024/03/24 11:45:25;;;;;;;1.95;1.30;;;;;;;;;;6247557;23;20325;-92
2024/03/24 11:47:51;;;;;;;0.98;0.98;;;;;;;;;;6215855;23;20475;-94
2024/03/24 11:50:18;;;;;;;1.05;0.73;;;;;;;;;;6247164;23;20051;-92
2024/03/24 11:52:44;;;;;;;1.23;0.98;;;;;;;;;;6222353;23;20341;-92
2024/03/24 11:55:13;;;;;;;2.28;1.20;;;;;;;;;;6222360;23;20020;-95
2024/03/24 11:57:39;;;;;;;0.90;0.90;;;;;;;;;;6223271;23;20070;-94
2024/03/24 12:00:06;;;;;;;1.83;0.90;;;;;;;;;;6246547;23;20020;-92
2024/03/24 12:02:32;;;;;;;0.70;0.60;;;;;;;;;;6221498;23;20020;-93
2024/03/24 12:04:59;;;;;;;2.05;0.93;;;;;;;;;;6220824;23;20459;-92
2024/03/24 12:07:25;;;;;;;0.65;0.65;;;;;;;;;;6246205;23;20027;-92
2024/03/24 12:09:55;;;;;;;0.80;0.70;;;;;;;;;;6221528;23;20039;-92
2024/03/24 12:12:22;;;;;;;1.23;0.68;;;;;;;;;;6246085;23;20024;-92
2024/03/24 12:14:49;;;;;;;1.52;0.70;;;;;;;;;;6246680;23;20028;-92
2024/03/24 12:17:21;;;;;;;0.90;0.80;;;;;;;;;;6246719;23;20020;-93
2024/03/24 12:19:47;;;;;;;0.68;0.68;;;;;;;;;;6247955;23;20023;-92
2024/03/24 12:22:14;;;;;;;2.42;0.70;;;;;;;;;;6239459;23;20020;-93
2024/03/24 12:24:40;;;;;;;1.02;0.80;;;;;;;;;;6223179;23;20340;-92
2024/03/24 12:27:07;;;;;;;0.98;0.80;;;;;;;;;;6246307;23;20028;-93
2024/03/24 12:29:33;;;;;;;0.73;0.73;;;;;;;;;;6221254;23;20352;-93
2024/03/24 12:31:59;;;;;;;1.65;0.93;;;;;;;;;;6221554;23;20028;-91
2024/03/24 12:34:28;;;;;;;1.00;0.90;;;;;;;;;;6246205;23;20024;-92
2024/03/24 12:36:55;;;;;;;0.82;0.73;;;;;;;;;;6220751;23;20452;-93
2024/03/24 12:39:21;;;;;;;1.67;0.88;;;;;;;;;;6246001;23;20074;-92
2024/03/24 12:41:47;;;;;;;0.75;0.60;;;;;;;;;;6246116;23;20461;-92
2024/03/24 12:44:21;;;;;;;0.90;0.90;;;;;;;;;;6220740;23;20024;-92
2024/03/24 12:46:47;;;;;;;0.80;0.80;;;;;;;;;;6220992;23;20020;-92
2024/03/24 12:49:18;;;;;;;0.50;0.50;;;;;;;;;;6220904;23;20046;-92
2024/03/24 12:51:45;;;;;;;0.80;0.80;;;;;;;;;;6221016;23;20016;-92
2024/03/24 12:54:16;;;;;;;0.88;0.88;;;;;;;;;;6220979;23;20020;-91
2024/03/24 12:56:44;;;;;;;0.77;0.77;;;;;;;;;;6247208;23;20062;-92
2024/03/24 12:59:10;;;;;;;0.90;0.90;;;;;;;;;;6220676;23;20026;-91
2024/03/24 13:01:37;;;;;;;0.82;0.80;;;;;;;;;;6220713;23;20020;-92
2024/03/24 13:04:04;;;;;;;0.70;0.70;;;;;;;;;;6246094;23;20020;-92
2024/03/24 13:06:35;;;;;;;0.98;0.98;;;;;;;;;;6220573;23;20070;-91
2024/03/24 13:09:03;;;;;;;0.80;0.80;;;;;;;;;;6246298;23;20322;-91
2024/03/24 13:11:29;;;;;;;0.63;0.63;;;;;;;;;;6221661;23;20021;-92
2024/03/24 13:13:55;;;;;;;0.68;0.68;;;;;;;;;;6222712;23;20016;-93
2024/03/24 13:16:25;;;;;;;0.68;0.68;;;;;;;;;;6220648;23;20028;-93
2024/03/24 13:19:01;;;;;;;0.50;0.50;;;;;;;;;;6221387;23;20069;-92
2024/03/24 13:21:32;;;;;;;0.70;0.70;;;;;;;;;;6246324;23;20024;-92
2024/03/24 13:24:00;;;;;;;0.60;0.60;;;;;;;;;;6221093;23;20022;-92
2024/03/24 13:26:28;;;;;;;0.70;0.70;;;;;;;;;;6221330;23;20024;-93
2024/03/24 13:28:54;;;;;;;0.52;0.52;;;;;;;;;;6221663;23;20020;-93
2024/03/24 13:31:21;;;;;;;0.80;0.65;;;;;;;;;;6223545;23;20024;-92
2024/03/24 13:33:48;;;;;;;0.55;0.55;;;;;;;;;;6224117;23;20020;-92
2024/03/24 13:36:19;;;;;;;0.50;0.50;;;;;;;;;;6236164;23;20042;-92
2024/03/24 13:39:09;;;;;;;0.40;0.40;;;;;;;;;;6260121;23;20023;-94
2024/03/24 13:41:42;;;;;;;0.57;0.57;;;;;;;;;;6248941;23;20075;-93
2024/03/24 13:44:23;;;;;;;0.97;0.70;;;;;;;;;;6224028;23;20020;-93
2024/03/24 13:47:10;;;;;;;0.75;0.70;;;;;;;;;;6222575;23;20457;-93
2024/03/24 13:49:37;;;;;;;1.20;0.70;;;;;;;;;;6247449;23;20457;-93
2024/03/24 13:52:05;;;;;;;0.70;0.65;;;;;;;;;;6222658;23;20395;-92
2024/03/24 13:54:33;;;;;;;1.00;0.70;;;;;;;;;;6248265;23;20024;-92
2024/03/24 13:56:59;;;;;;;0.73;0.73;;;;;;;;;;6222548;23;20029;-91
2024/03/24 13:59:25;;;;;;;1.20;0.80;;;;;;;;;;6222391;23;20020;-92
2024/03/24 14:01:51;;;;;;;1.15;0.80;;;;;;;;;;6222294;23;20016;-92
2024/03/24 14:04:17;;;;;;;0.60;0.60;;;;;;;;;;6222375;23;20020;-92
2024/03/24 14:06:44;;;;;;;1.30;0.50;;;;;;;;;;6222211;23;20016;-92
2024/03/24 14:09:10;;;;;;;1.67;0.90;;;;;;;;;;6222540;23;20028;-92
2024/03/24 14:11:36;;;;;;;4.07;1.08;;;;;;;;;;6222136;23;20016;-94
2024/03/24 14:14:21;;;;;;;0.98;0.70;;;;;;;;;;6222724;23;20020;-92
2024/03/24 14:16:48;;;;;;;0.70;0.70;;;;;;;;;;6223212;23;20467;-92
2024/03/24 14:19:21;;;;;;;2.47;0.63;;;;;;;;;;6222419;23;20443;-92
2024/03/24 14:21:54;;;;;;;0.73;0.63;;;;;;;;;;6222722;23;20070;-91
2024/03/24 14:24:36;;;;;;;3.40;1.10;;;;;;;;;;6223353;23;20043;-91
2024/03/24 14:27:02;;;;;;;0.47;0.47;;;;;;;;;;6222584;23;20020;-92
2024/03/24 14:29:28;;;;;;;2.35;0.65;;;;;;;;;;6222667;23;20078;-91
2024/03/24 14:31:55;;;;;;;0.60;0.60;;;;;;;;;;6222797;23;20341;-92
2024/03/24 14:34:21;;;;;;;1.35;1.05;;;;;;;;;;6222353;23;20094;-92
2024/03/24 14:36:53;;;;;;;2.17;0.90;;;;;;;;;;6222851;23;20333;-92
2024/03/24 14:39:31;;;;;;;2.38;0.70;;;;;;;;;;6221745;23;20027;-92
2024/03/24 14:42:00;;;;;;;1.40;1.02;;;;;;;;;;6222886;23;20016;-91
2024/03/24 14:44:26;;;;;;;1.83;1.10;;;;;;;;;;6223640;23;20085;-92